createdAt,value
2018-04-10T06:26:22.521Z,99.50
2018-04-10T06:28:53.480Z,99.20
2018-04-10T06:31:23.125Z,99.20
2018-04-10T06:34:02.227Z,98.30
2018-04-10T06:36:32.832Z,98.40
2018-04-10T06:39:03.384Z,97.70
2018-04-10T06:42:09.944Z,97.60
2018-04-10T06:44:39.991Z,98.60
2018-04-10T06:47:25.265Z,98.90
2018-04-10T06:49:54.976Z,98.00
2018-04-10T06:52:24.155Z,98.10
2018-04-10T06:54:59.411Z,96.40
2018-04-10T06:57:31.198Z,97.00
2018-04-10T07:00:07.763Z,96.40
2018-04-10T07:02:38.919Z,96.90
2018-04-10T07:08:34.462Z,96.50
2018-04-10T07:11:27.827Z,96.30
2018-04-10T07:13:58.344Z,95.00
2018-04-10T07:16:28.120Z,94.40
2018-04-10T07:18:57.660Z,93.10
2018-04-10T07:21:27.578Z,91.10
2018-04-10T07:23:56.983Z,88.00
2018-04-10T07:26:26.201Z,86.30
2018-04-10T07:32:10.832Z,85.90
2018-04-10T07:34:43.273Z,81.70
2018-04-10T07:37:25.104Z,79.50
2018-04-10T07:39:56.197Z,68.20
2018-04-10T07:42:26.151Z,68.20
2018-04-10T07:44:56.382Z,68.90
2018-04-10T07:47:32.405Z,71.60
2018-04-10T07:50:23.091Z,72.10
2018-04-10T07:52:58.873Z,68.60
2018-04-10T07:55:41.258Z,63.00
2018-04-10T07:58:13.608Z,63.20
2018-04-10T08:00:43.279Z,63.20
2018-04-10T08:03:15.729Z,66.90
2018-04-10T08:05:45.012Z,65.20
2018-04-10T08:08:14.160Z,66.00
2018-04-10T08:10:43.758Z,69.50
2018-04-10T08:13:12.909Z,66.40
2018-04-10T08:15:42.157Z,70.50
2018-04-10T08:18:11.620Z,64.90
2018-04-10T08:20:41.546Z,62.90
2018-04-10T08:23:12.562Z,58.20
2018-04-10T08:25:42.137Z,57.30
2018-04-10T08:28:15.791Z,58.40
2018-04-10T08:30:50.141Z,58.40
2018-04-10T08:33:39.285Z,58.50
2018-04-10T08:36:08.975Z,58.50
2018-04-10T08:38:42.031Z,54.30
2018-04-10T08:41:11.929Z,54.60
2018-04-10T08:43:43.770Z,54.60
2018-04-10T08:46:13.983Z,57.40
2018-04-10T08:48:44.296Z,57.30
2018-04-10T08:51:13.771Z,53.70
2018-04-10T08:53:46.867Z,49.60
2018-04-10T08:56:16.255Z,49.40
2018-04-10T08:58:45.788Z,47.40
2018-04-10T09:01:17.670Z,43.80
2018-04-10T09:03:48.374Z,46.10
2018-04-10T09:06:22.936Z,46.20
2018-04-10T09:08:52.475Z,47.90
2018-04-10T09:11:46.196Z,47.10
2018-04-10T09:14:18.110Z,46.10
2018-04-10T09:16:47.447Z,50.60
2018-04-10T09:19:18.719Z,50.40
2018-04-10T09:21:50.583Z,52.30
2018-04-10T09:24:20.600Z,51.60
2018-04-10T09:30:14.410Z,52.00
2018-04-10T09:32:44.295Z,52.10
2018-04-10T09:35:14.630Z,54.20
2018-04-10T09:37:44.794Z,51.60
2018-04-10T09:40:25.839Z,51.50
2018-04-10T09:42:55.487Z,51.20
2018-04-10T09:45:26.313Z,52.00
2018-04-10T09:47:55.684Z,50.80
2018-04-10T09:50:27.089Z,51.00
2018-04-10T09:52:59.809Z,50.90
2018-04-10T09:56:01.673Z,53.40
2018-04-10T09:58:32.765Z,51.20
2018-04-10T10:01:03.679Z,51.20
2018-04-10T10:03:38.207Z,52.70
2018-04-10T10:06:08.465Z,55.10
2018-04-10T10:08:38.100Z,55.10
2018-04-10T10:11:09.263Z,53.80
2018-04-10T10:13:39.287Z,53.70
2018-04-10T10:16:09.030Z,54.30
2018-04-10T10:18:38.813Z,55.20
2018-04-10T10:21:32.505Z,54.00
2018-04-10T10:24:06.084Z,55.30
2018-04-10T10:26:35.477Z,57.10
2018-04-10T10:29:11.376Z,54.90
2018-04-10T10:31:44.774Z,54.50
2018-04-10T10:34:37.193Z,53.60
2018-04-10T10:37:07.356Z,53.50
2018-04-10T10:39:37.331Z,54.60
2018-04-10T10:42:07.109Z,55.10
2018-04-10T10:45:02.474Z,53.80
2018-04-10T10:47:36.797Z,52.60
2018-04-10T10:50:18.972Z,54.50
2018-04-10T10:52:49.873Z,54.50
2018-04-10T10:55:19.395Z,52.80
2018-04-10T10:57:53.757Z,53.70
2018-04-10T11:00:29.004Z,54.50
2018-04-10T11:03:08.033Z,53.30
2018-04-10T11:05:42.854Z,52.60
2018-04-10T11:08:15.326Z,52.60
2018-04-10T11:10:46.656Z,53.70
2018-04-10T11:13:17.974Z,54.60
2018-04-10T11:16:00.763Z,51.50
2018-04-10T11:18:31.367Z,51.30
2018-04-10T11:21:00.887Z,52.50
2018-04-10T11:23:40.532Z,51.10
2018-04-10T11:26:12.069Z,52.30
2018-04-10T11:28:42.162Z,52.10
2018-04-10T11:31:12.166Z,51.00
2018-04-10T11:33:43.286Z,53.30
2018-04-10T11:36:15.833Z,52.30
2018-04-10T11:38:49.936Z,52.30
2018-04-10T11:41:30.451Z,53.20
2018-04-10T11:44:02.198Z,55.00
2018-04-10T11:46:47.177Z,54.20
2018-04-10T11:49:17.940Z,52.70
2018-04-10T11:51:47.491Z,52.70
2018-04-10T11:54:17.405Z,51.60
2018-04-10T11:56:48.378Z,52.80
2018-04-10T11:59:19.568Z,52.80
2018-04-10T12:01:51.894Z,53.00
2018-04-10T12:04:25.128Z,53.30
2018-04-10T12:06:54.901Z,53.30
2018-04-10T12:09:54.444Z,52.80
2018-04-10T12:12:28.244Z,48.70
2018-04-10T12:14:58.151Z,48.60
2018-04-10T12:17:27.602Z,50.40
2018-04-10T12:19:58.232Z,48.40
2018-04-10T12:22:27.479Z,44.80
2018-04-10T12:24:56.987Z,46.80
2018-04-10T12:27:26.554Z,49.20
2018-04-10T12:29:58.871Z,48.10
2018-04-10T12:32:28.973Z,48.10
2018-04-10T12:34:59.121Z,49.10
2018-04-10T12:37:29.774Z,49.50
2018-04-10T12:39:59.435Z,49.40
2018-04-10T12:42:28.998Z,48.30
2018-04-10T12:48:22.019Z,48.00
2018-04-10T12:50:53.336Z,48.80
2018-04-10T12:53:22.718Z,52.10
2018-04-10T12:55:52.717Z,51.60
2018-04-10T12:58:23.803Z,48.30
2018-04-10T13:00:58.142Z,48.80
2018-04-10T13:03:27.610Z,49.80
2018-04-10T13:05:56.909Z,52.90
2018-04-10T13:08:30.188Z,54.30
2018-04-10T13:11:00.342Z,53.60
2018-04-10T13:13:33.491Z,53.20
2018-04-10T13:16:07.719Z,53.50
2018-04-10T13:21:31.191Z,54.00
2018-04-10T13:24:18.162Z,53.00
2018-04-10T13:26:50.479Z,52.30
2018-04-10T13:29:27.904Z,52.60
2018-04-10T13:31:57.399Z,52.10
2018-04-10T13:34:44.539Z,52.90
2018-04-10T13:37:16.038Z,52.80
2018-04-10T13:39:57.125Z,52.80
2018-04-10T13:50:14.009Z,54.00
2018-04-10T13:52:48.241Z,53.80
2018-04-10T13:55:19.463Z,55.30
2018-04-10T13:58:12.490Z,54.30
2018-04-10T14:00:59.404Z,55.00
2018-04-10T14:07:03.793Z,53.70
2018-04-10T15:58:33.683Z,54.00
2018-04-10T16:01:11.332Z,54.10
2018-04-10T16:03:56.930Z,55.00
2018-04-10T16:09:58.430Z,57.10
2018-04-10T16:12:39.336Z,57.60
2018-04-10T16:15:24.972Z,57.50
2018-04-10T16:18:22.737Z,57.50
2018-04-10T16:24:52.896Z,57.90
2018-04-10T16:27:51.096Z,58.10
2018-04-10T16:30:47.223Z,58.50
2018-04-10T16:40:49.495Z,58.00
2018-04-10T16:43:39.438Z,58.10
2018-04-10T16:46:25.086Z,57.90
2018-04-10T16:48:54.489Z,58.60
2018-04-10T16:52:00.182Z,58.90
2018-04-10T16:54:48.726Z,59.10
2018-04-10T16:57:46.401Z,59.10
2018-04-10T17:00:33.229Z,59.20
2018-04-10T17:05:48.069Z,60.00
2018-04-10T17:08:46.999Z,59.90
2018-04-10T17:11:27.000Z,59.90
2018-04-10T17:14:21.943Z,60.30
2018-04-10T17:16:51.366Z,61.00
2018-04-10T17:19:22.401Z,61.50
2018-04-10T17:22:01.451Z,61.70
2018-04-10T17:24:35.153Z,62.30
2018-04-10T17:27:07.351Z,63.50
2018-04-10T17:29:36.726Z,63.50
2018-04-10T17:35:17.505Z,68.60
2018-04-10T17:37:47.196Z,68.60
2018-04-10T17:40:28.079Z,69.20
2018-04-10T17:43:14.330Z,70.70
2018-04-10T17:45:44.869Z,70.80
2018-04-10T17:48:27.908Z,72.40
2018-04-10T17:51:08.444Z,72.00
2018-04-10T17:53:38.904Z,72.70
2018-04-10T17:56:08.370Z,73.60
2018-04-10T17:59:02.463Z,75.60
2018-04-10T18:01:31.810Z,76.10
2018-04-10T18:04:01.341Z,77.10
2018-04-10T18:06:31.239Z,76.30
2018-04-10T18:09:00.570Z,76.10
2018-04-10T18:11:30.436Z,76.90
2018-04-10T18:14:00.060Z,79.20
2018-04-10T18:16:30.337Z,80.70
2018-04-10T18:19:01.710Z,81.10
2018-04-10T18:21:32.313Z,83.90
2018-04-10T18:24:01.502Z,83.80
2018-04-10T18:26:30.739Z,85.40
2018-04-10T18:29:01.533Z,79.80
2018-04-10T18:31:31.152Z,79.70
2018-04-10T18:34:00.497Z,79.30
2018-04-10T18:36:30.079Z,78.30
2018-04-10T18:38:59.216Z,77.90
2018-04-10T18:41:29.709Z,80.20
2018-04-10T18:43:59.909Z,80.80
2018-04-10T18:46:29.306Z,83.70
2018-04-10T18:48:58.727Z,89.00
2018-04-10T18:51:33.465Z,91.50
2018-04-10T18:54:03.209Z,93.00
2018-04-10T18:56:35.665Z,93.10
2018-04-10T18:59:05.269Z,94.10
2018-04-10T19:01:34.432Z,95.30
2018-04-10T19:04:03.928Z,92.20
2018-04-10T19:06:34.180Z,91.20
2018-04-10T19:09:03.661Z,90.80
2018-04-10T19:11:34.300Z,91.30
2018-04-10T19:14:05.067Z,91.90
2018-04-10T19:16:34.686Z,92.70
2018-04-10T19:19:05.644Z,93.20
2018-04-10T19:21:35.979Z,93.10
2018-04-10T19:24:06.030Z,94.10
2018-04-10T19:26:37.114Z,94.00
2018-04-10T19:29:07.319Z,92.80
2018-04-10T19:31:37.316Z,93.60
2018-04-10T19:34:08.597Z,93.60
2018-04-10T19:36:39.453Z,94.00
2018-04-10T19:39:09.625Z,94.00
2018-04-10T19:41:39.109Z,94.60
2018-04-10T19:44:08.438Z,94.70
2018-04-10T19:46:37.620Z,94.70
2018-04-10T19:49:07.660Z,95.20
2018-04-10T19:51:37.720Z,96.40
2018-04-10T19:54:09.213Z,96.40
2018-04-10T19:56:38.987Z,97.30
2018-04-10T19:59:08.876Z,96.60
2018-04-10T20:01:38.087Z,96.60
2018-04-10T20:04:07.593Z,95.40
2018-04-10T20:06:37.544Z,95.60
2018-04-10T20:09:07.517Z,95.60
2018-04-10T20:11:36.606Z,95.50
2018-04-10T20:14:05.814Z,94.70
2018-04-10T20:16:35.575Z,94.00
2018-04-10T20:19:04.998Z,94.10
2018-04-10T20:21:34.983Z,93.80
2018-04-10T20:24:04.575Z,93.80
2018-04-10T20:26:33.717Z,94.00
2018-04-10T20:29:03.204Z,94.30
2018-04-10T20:31:49.661Z,94.40
2018-04-10T20:34:18.783Z,94.50
2018-04-10T20:36:50.147Z,94.80
2018-04-10T20:39:19.376Z,94.10
2018-04-10T20:41:48.607Z,95.30
2018-04-10T20:44:18.219Z,95.60
2018-04-10T20:46:47.412Z,95.70
2018-04-10T20:49:16.647Z,94.90
2018-04-10T20:51:46.551Z,95.00
2018-04-10T20:54:15.741Z,92.30
2018-04-10T20:56:44.935Z,92.50
2018-04-10T20:59:15.528Z,91.80
2018-04-10T21:01:44.710Z,91.70
2018-04-10T21:04:13.940Z,90.30
2018-04-10T21:06:43.820Z,91.80
2018-04-10T21:09:13.039Z,92.90
2018-04-10T21:11:42.468Z,92.10
2018-04-10T21:14:11.949Z,92.20
2018-04-10T21:16:41.126Z,92.60
2018-04-10T21:19:10.318Z,92.50
2018-04-10T21:21:40.045Z,92.60
2018-04-10T21:24:09.630Z,92.70
2018-04-10T21:26:38.873Z,93.00
2018-04-10T21:29:08.623Z,93.20
2018-04-10T21:31:38.122Z,93.30
2018-04-10T21:34:07.260Z,93.40
2018-04-10T21:36:36.781Z,93.30
2018-04-10T21:39:06.710Z,93.50
2018-04-10T21:41:36.238Z,94.00
2018-04-10T21:44:06.148Z,94.60
2018-04-10T21:46:35.569Z,94.80
2018-04-10T21:49:05.065Z,95.00
2018-04-10T21:51:34.840Z,95.40
2018-04-10T21:54:05.096Z,96.90
2018-04-10T21:56:35.029Z,96.90
2018-04-10T21:59:04.768Z,96.90
2018-04-10T22:01:36.392Z,97.20
2018-04-10T22:04:07.864Z,97.80
2018-04-10T22:06:37.519Z,98.20
2018-04-10T22:09:06.983Z,97.40
2018-04-10T22:11:36.263Z,97.60
2018-04-10T22:14:06.513Z,98.20
2018-04-10T22:16:35.956Z,98.20
2018-04-10T22:19:05.473Z,98.80
2018-04-10T22:21:35.252Z,98.10
2018-04-10T22:24:05.342Z,98.90
2018-04-10T22:26:34.614Z,98.90
2018-04-10T22:29:04.402Z,99.00
2018-04-10T22:31:34.478Z,99.10
2018-04-10T22:34:03.533Z,98.80
2018-04-10T22:36:32.959Z,98.80
2018-04-10T22:39:02.891Z,99.70
2018-04-10T22:41:32.120Z,99.70
2018-04-10T22:44:01.746Z,99.90
2018-04-10T22:46:31.633Z,99.90
2018-04-10T22:49:01.706Z,99.90
2018-04-10T22:51:30.902Z,99.90
2018-04-10T22:54:00.090Z,99.90
2018-04-10T22:56:29.626Z,99.90
2018-04-10T22:58:59.086Z,99.90
2018-04-10T23:01:29.088Z,99.90
2018-04-10T23:03:58.794Z,99.90
2018-04-10T23:06:28.303Z,99.90
2018-04-10T23:08:57.835Z,99.90
2018-04-10T23:11:28.161Z,99.90
2018-04-10T23:13:57.915Z,99.90
2018-04-10T23:16:27.350Z,99.90
2018-04-10T23:18:57.553Z,99.90
2018-04-10T23:21:27.215Z,99.90
2018-04-10T23:23:57.548Z,99.90
2018-04-10T23:26:28.124Z,99.90
2018-04-10T23:28:57.563Z,99.90
2018-04-10T23:31:27.537Z,99.90
2018-04-10T23:33:57.925Z,99.90
2018-04-10T23:36:27.882Z,99.90
2018-04-10T23:38:57.218Z,99.90
2018-04-10T23:41:26.777Z,99.90
2018-04-10T23:43:56.078Z,99.90
2018-04-10T23:46:25.695Z,99.90
2018-04-10T23:48:55.666Z,99.90
2018-04-10T23:51:25.484Z,99.90
2018-04-10T23:53:55.495Z,99.90
2018-04-10T23:56:25.183Z,99.90
2018-04-10T23:58:55.581Z,99.90
